createdAt,value
2023-03-03T00:00:42.945Z,25.80
2023-03-03T00:03:11.191Z,27.00
2023-03-03T00:05:38.093Z,25.50
2023-03-03T00:08:04.761Z,29.67
2023-03-03T00:10:31.157Z,30.05
2023-03-03T00:12:57.529Z,29.40
2023-03-03T00:15:25.064Z,27.95
2023-03-03T00:17:52.873Z,28.42
2023-03-03T00:20:34.398Z,28.52
2023-03-03T00:23:15.970Z,27.40
2023-03-03T00:25:46.669Z,28.25
2023-03-03T00:28:41.452Z,26.70
2023-03-03T00:31:15.590Z,30.05
2023-03-03T00:33:47.310Z,30.65
2023-03-03T00:36:16.717Z,30.75
2023-03-03T00:38:43.731Z,31.35
2023-03-03T00:41:27.439Z,30.60
2023-03-03T00:43:54.258Z,30.98
2023-03-03T00:46:23.127Z,27.17
2023-03-03T00:48:51.074Z,27.90
2023-03-03T00:51:30.323Z,26.80
2023-03-03T00:53:57.969Z,25.27
2023-03-03T00:56:24.732Z,24.25
2023-03-03T00:58:51.473Z,21.95
2023-03-03T01:01:18.426Z,20.48
2023-03-03T01:03:44.993Z,20.10
2023-03-03T01:06:12.113Z,19.00
2023-03-03T01:08:38.588Z,18.02
2023-03-03T01:11:12.183Z,19.90
2023-03-03T01:13:40.225Z,20.13
2023-03-03T01:16:06.997Z,19.92
2023-03-03T01:18:34.000Z,20.33
2023-03-03T01:21:01.977Z,21.13
2023-03-03T01:23:28.683Z,23.95
2023-03-03T01:25:55.199Z,26.60
2023-03-03T01:28:22.372Z,29.65
2023-03-03T01:30:48.780Z,31.70
2023-03-03T01:33:15.141Z,28.65
2023-03-03T01:35:48.251Z,29.02
2023-03-03T01:38:15.370Z,30.60
2023-03-03T01:40:41.833Z,29.42
2023-03-03T01:43:08.499Z,31.67
2023-03-03T01:45:47.385Z,31.50
2023-03-03T01:48:25.601Z,30.75
2023-03-03T01:50:55.384Z,31.25
2023-03-03T01:53:36.869Z,33.00
2023-03-03T01:56:05.913Z,30.42
2023-03-03T01:58:36.345Z,31.23
2023-03-03T02:01:07.695Z,33.25
2023-03-03T02:03:34.226Z,32.38
2023-03-03T02:06:05.099Z,32.60
2023-03-03T02:08:36.646Z,31.73
2023-03-03T02:11:03.694Z,32.33
2023-03-03T02:13:30.202Z,33.35
2023-03-03T02:15:56.851Z,32.75
2023-03-03T02:18:23.311Z,33.45
2023-03-03T02:20:57.095Z,33.22
2023-03-03T02:23:38.505Z,33.65
2023-03-03T02:26:13.573Z,32.75
2023-03-03T02:28:40.713Z,33.03
2023-03-03T02:31:13.159Z,34.40
2023-03-03T02:36:18.249Z,28.92
2023-03-03T02:38:50.100Z,28.80
2023-03-03T02:41:27.986Z,30.02
2023-03-03T02:44:01.661Z,28.30
2023-03-03T02:46:32.245Z,30.45
2023-03-03T02:48:58.668Z,32.25
2023-03-03T02:51:25.091Z,32.35
2023-03-03T02:53:51.551Z,30.50
2023-03-03T02:56:17.966Z,32.53
2023-03-03T02:58:44.392Z,33.30
2023-03-03T03:01:10.907Z,32.05
2023-03-03T03:03:37.560Z,34.65
2023-03-03T03:06:04.172Z,33.83
2023-03-03T03:08:30.946Z,33.50
2023-03-03T03:10:57.528Z,33.15
2023-03-03T03:13:24.927Z,32.88
2023-03-03T03:15:52.053Z,33.20
2023-03-03T03:18:18.548Z,34.33
2023-03-03T03:20:46.134Z,34.33
2023-03-03T03:23:13.324Z,34.35
2023-03-03T03:25:45.254Z,32.85
2023-03-03T03:28:12.732Z,34.15
2023-03-03T03:30:39.487Z,34.55
2023-03-03T03:33:06.238Z,33.38
2023-03-03T03:35:34.208Z,33.85
2023-03-03T03:38:00.906Z,35.15
2023-03-03T03:40:27.512Z,34.15
2023-03-03T03:42:54.140Z,30.75
2023-03-03T03:45:20.829Z,33.20
2023-03-03T03:47:47.391Z,32.85
2023-03-03T03:50:13.988Z,31.48
2023-03-03T03:52:40.418Z,34.78
2023-03-03T03:55:07.375Z,32.45
2023-03-03T03:57:33.763Z,34.83
2023-03-03T04:00:00.199Z,34.30
2023-03-03T04:02:26.678Z,34.40
2023-03-03T04:04:53.172Z,35.75
2023-03-03T04:07:19.630Z,33.10
2023-03-03T04:09:46.062Z,32.85
2023-03-03T04:12:12.945Z,33.22
2023-03-03T04:14:39.419Z,33.75
2023-03-03T04:17:05.859Z,32.92
2023-03-03T04:19:32.227Z,34.42
2023-03-03T04:21:58.590Z,31.83
2023-03-03T04:24:25.026Z,32.10
2023-03-03T04:26:51.473Z,31.65
2023-03-03T04:29:17.852Z,32.13
2023-03-03T04:31:44.275Z,32.38
2023-03-03T04:34:10.648Z,32.78
2023-03-03T04:36:37.066Z,32.00
2023-03-03T04:39:03.492Z,31.70
2023-03-03T04:41:29.936Z,31.40
2023-03-03T04:43:56.415Z,30.83
2023-03-03T04:46:22.805Z,31.38
2023-03-03T04:48:49.235Z,32.20
2023-03-03T04:51:16.630Z,30.20
2023-03-03T04:53:43.023Z,31.55
2023-03-03T04:56:09.450Z,31.95
2023-03-03T04:58:35.942Z,32.85
2023-03-03T05:01:02.357Z,30.73
2023-03-03T05:03:28.759Z,30.08
2023-03-03T05:05:55.167Z,30.70
2023-03-03T05:08:21.691Z,30.65
2023-03-03T05:10:52.198Z,32.72
2023-03-03T05:13:18.713Z,31.42
2023-03-03T05:15:50.083Z,32.65
2023-03-03T05:18:17.893Z,33.85
2023-03-03T05:20:44.297Z,33.42
2023-03-03T05:23:10.682Z,34.13
2023-03-03T05:25:38.068Z,35.80
2023-03-03T05:28:04.719Z,33.15
2023-03-03T05:30:31.204Z,34.17
2023-03-03T05:32:59.313Z,34.60
2023-03-03T05:35:26.239Z,34.67
2023-03-03T05:37:52.877Z,36.00
2023-03-03T05:40:19.727Z,35.60
2023-03-03T05:42:46.312Z,37.85
2023-03-03T05:45:13.106Z,37.88
2023-03-03T05:47:39.718Z,37.97
2023-03-03T05:50:06.238Z,39.90
2023-03-03T05:52:32.629Z,39.78
2023-03-03T05:54:59.041Z,39.10
2023-03-03T05:57:25.521Z,38.35
2023-03-03T05:59:51.881Z,40.28
2023-03-03T06:02:18.285Z,40.47
2023-03-03T06:04:44.658Z,41.08
2023-03-03T06:07:11.080Z,42.63
2023-03-03T06:09:37.628Z,41.13
2023-03-03T06:12:04.260Z,38.88
2023-03-03T06:14:30.695Z,37.70
2023-03-03T06:16:57.902Z,39.58
2023-03-03T06:19:24.725Z,38.30
2023-03-03T06:21:51.100Z,38.22
2023-03-03T06:24:17.567Z,38.03
2023-03-03T06:26:44.061Z,35.85
2023-03-03T06:29:10.434Z,37.30
2023-03-03T06:31:36.954Z,39.20
2023-03-03T06:34:03.416Z,35.50
2023-03-03T06:36:29.836Z,35.85
2023-03-03T06:38:56.201Z,34.38
2023-03-03T06:41:22.598Z,35.58
2023-03-03T06:43:48.988Z,37.80
2023-03-03T06:46:15.432Z,37.38
2023-03-03T06:48:41.968Z,34.78
2023-03-03T06:51:28.319Z,33.42
2023-03-03T06:53:56.358Z,32.00
2023-03-03T06:56:25.940Z,33.67
2023-03-03T06:58:59.163Z,32.90
2023-03-03T07:01:25.696Z,32.90
2023-03-03T07:03:52.177Z,32.05
2023-03-03T07:06:28.290Z,33.22
2023-03-03T07:08:55.075Z,31.85
2023-03-03T07:11:23.005Z,32.88
2023-03-03T07:13:54.529Z,33.88
2023-03-03T07:16:26.265Z,24.97
2023-03-03T07:18:57.670Z,31.08
2023-03-03T07:21:34.051Z,31.80
2023-03-03T07:24:05.478Z,29.15
2023-03-03T07:26:34.724Z,30.58
2023-03-03T07:29:05.762Z,31.35
2023-03-03T07:31:37.406Z,30.65
2023-03-03T07:34:16.268Z,31.60
2023-03-03T07:36:43.368Z,30.98
2023-03-03T07:39:26.608Z,32.20
2023-03-03T07:41:55.991Z,31.20
2023-03-03T07:44:29.829Z,31.77
2023-03-03T07:46:56.225Z,32.10
2023-03-03T07:49:49.723Z,32.30
2023-03-03T07:52:32.239Z,32.13
2023-03-03T07:55:20.649Z,31.85
2023-03-03T07:57:47.021Z,30.42
2023-03-03T08:00:16.659Z,32.90
2023-03-03T08:02:56.284Z,33.22
2023-03-03T08:05:28.865Z,33.10
2023-03-03T08:08:03.657Z,34.30
2023-03-03T08:10:49.469Z,32.58
2023-03-03T08:13:24.336Z,32.70
2023-03-03T08:15:52.730Z,32.65
2023-03-03T08:18:29.791Z,30.38
2023-03-03T08:21:00.585Z,30.33
2023-03-03T08:23:27.043Z,31.75
2023-03-03T08:25:53.756Z,31.50
2023-03-03T08:28:20.662Z,31.70
2023-03-03T08:30:47.616Z,33.05
2023-03-03T08:33:14.883Z,32.25
2023-03-03T08:35:41.812Z,33.17
2023-03-03T08:38:09.080Z,32.80
2023-03-03T08:40:35.844Z,35.10
2023-03-03T08:43:02.598Z,32.70
2023-03-03T08:45:29.198Z,31.38
2023-03-03T08:47:55.836Z,33.28
2023-03-03T08:50:22.917Z,32.15
2023-03-03T08:52:49.576Z,34.65
2023-03-03T08:55:16.020Z,32.15
2023-03-03T08:57:42.462Z,33.78
2023-03-03T09:00:11.638Z,33.75
2023-03-03T09:02:38.104Z,33.95
2023-03-03T09:05:05.034Z,34.97
2023-03-03T09:07:31.582Z,34.28
2023-03-03T09:09:58.006Z,32.13
2023-03-03T09:12:36.868Z,34.47
2023-03-03T09:15:15.230Z,32.45
2023-03-03T09:17:41.686Z,33.38
2023-03-03T09:20:29.279Z,33.50
2023-03-03T09:22:55.735Z,33.45
2023-03-03T09:25:33.478Z,34.45
2023-03-03T09:28:02.050Z,31.90
2023-03-03T09:30:39.249Z,31.95
2023-03-03T09:33:33.338Z,36.55
2023-03-03T09:36:04.468Z,37.88
2023-03-03T09:38:33.197Z,36.25
2023-03-03T09:41:44.909Z,33.95
2023-03-03T09:44:17.061Z,33.35
2023-03-03T09:47:28.800Z,32.75
2023-03-03T09:50:02.584Z,32.67
2023-03-03T09:52:55.984Z,33.88
2023-03-03T09:55:35.970Z,35.78
2023-03-03T09:58:14.234Z,33.38
2023-03-03T10:00:54.600Z,35.17
2023-03-03T10:03:47.970Z,34.40
2023-03-03T10:06:32.001Z,31.10
2023-03-03T10:09:08.330Z,29.52
2023-03-03T10:11:57.811Z,32.10
2023-03-03T10:15:00.205Z,30.70
2023-03-03T10:17:35.788Z,30.38
2023-03-03T10:20:40.557Z,28.75
2023-03-03T10:23:22.604Z,30.40
2023-03-03T10:26:04.977Z,31.67
2023-03-03T10:28:53.764Z,28.95
2023-03-03T10:31:29.030Z,29.48
2023-03-03T10:34:02.857Z,29.25
2023-03-03T10:36:43.133Z,31.23
2023-03-03T10:39:25.179Z,30.67
2023-03-03T10:42:06.306Z,29.20
2023-03-03T10:45:00.076Z,28.42
2023-03-03T10:47:50.470Z,29.33
2023-03-03T10:50:41.148Z,30.52
2023-03-03T10:53:27.657Z,28.98
2023-03-03T10:56:12.464Z,30.70
2023-03-03T10:59:09.489Z,29.90
2023-03-03T11:01:45.114Z,31.98
2023-03-03T11:04:21.330Z,30.55
2023-03-03T11:06:57.888Z,30.35
2023-03-03T11:09:33.354Z,31.05
2023-03-03T11:12:06.324Z,31.30
2023-03-03T11:14:52.868Z,30.80
2023-03-03T11:17:51.675Z,31.65
2023-03-03T11:20:34.091Z,29.67
2023-03-03T11:23:33.620Z,28.20
2023-03-03T11:26:18.698Z,29.38
2023-03-03T11:28:56.651Z,28.85
2023-03-03T11:31:28.421Z,27.70
2023-03-03T11:34:18.003Z,29.05
2023-03-03T11:36:52.490Z,28.42
2023-03-03T11:39:22.624Z,27.42
2023-03-03T11:42:07.905Z,28.00
2023-03-03T11:45:00.684Z,28.13
2023-03-03T11:47:35.504Z,27.95
2023-03-03T11:50:12.775Z,28.35
2023-03-03T11:52:54.454Z,27.30
2023-03-03T11:55:27.454Z,26.67
2023-03-03T11:58:18.143Z,25.75
2023-03-03T12:00:52.033Z,23.70
2023-03-03T12:03:22.152Z,23.23
2023-03-03T12:05:51.586Z,23.45
2023-03-03T12:08:43.599Z,23.38
2023-03-03T12:11:30.896Z,23.47
2023-03-03T12:14:02.864Z,22.80
2023-03-03T12:16:46.806Z,23.88
2023-03-03T12:19:42.520Z,24.33
2023-03-03T12:22:34.051Z,24.35
2023-03-03T12:25:24.241Z,23.55
2023-03-03T12:28:15.622Z,24.05
2023-03-03T12:30:57.886Z,23.52
2023-03-03T12:33:36.380Z,22.67
2023-03-03T12:36:14.289Z,23.20
2023-03-03T12:39:01.788Z,22.02
2023-03-03T12:41:31.148Z,21.88
2023-03-03T12:44:12.736Z,20.63
2023-03-03T12:47:25.555Z,21.67
2023-03-03T12:50:08.388Z,22.33
2023-03-03T12:53:11.462Z,20.02
2023-03-03T12:55:48.626Z,20.55
2023-03-03T12:58:25.852Z,19.00
2023-03-03T13:01:31.470Z,19.80
2023-03-03T13:04:27.566Z,18.70
2023-03-03T13:06:56.986Z,18.75
2023-03-03T13:09:39.746Z,18.73
2023-03-03T13:14:52.569Z,17.08
2023-03-03T13:17:32.255Z,18.48
2023-03-03T13:20:01.478Z,17.42
2023-03-03T13:22:38.787Z,17.73
2023-03-03T13:25:27.648Z,17.40
2023-03-03T13:28:01.003Z,16.67
2023-03-03T13:30:30.772Z,16.08
2023-03-03T13:33:38.621Z,16.88
2023-03-03T13:36:13.735Z,17.05
2023-03-03T13:38:48.012Z,16.90
2023-03-03T13:41:32.225Z,18.13
2023-03-03T13:44:04.438Z,18.35
2023-03-03T13:46:48.353Z,18.17
2023-03-03T13:49:24.102Z,17.38
2023-03-03T13:51:56.485Z,17.45
2023-03-03T13:54:49.057Z,17.38
2023-03-03T13:57:45.701Z,16.85
2023-03-03T14:00:59.540Z,16.42
2023-03-03T14:03:53.426Z,15.77
2023-03-03T14:06:23.317Z,15.93
2023-03-03T14:09:04.560Z,16.67
2023-03-03T14:11:56.579Z,15.88
2023-03-03T14:14:55.892Z,15.68
2023-03-03T14:17:34.634Z,16.58
2023-03-03T14:20:23.221Z,16.45
2023-03-03T14:23:01.653Z,16.52
2023-03-03T14:25:56.824Z,16.83
2023-03-03T14:28:24.985Z,18.08
2023-03-03T14:30:55.698Z,18.85
2023-03-03T14:33:27.131Z,18.50
2023-03-03T14:35:56.533Z,17.75
2023-03-03T14:38:35.863Z,21.23
2023-03-03T14:41:15.650Z,21.90
2023-03-03T14:43:45.301Z,20.48
2023-03-03T14:46:33.503Z,20.00
2023-03-03T14:49:02.547Z,20.70
2023-03-03T14:51:34.599Z,19.65
2023-03-03T14:54:01.121Z,20.92
2023-03-03T14:56:34.390Z,21.35
2023-03-03T14:59:21.073Z,19.80
2023-03-03T15:01:48.002Z,20.25
2023-03-03T15:04:14.402Z,21.27
2023-03-03T15:06:48.427Z,19.85
2023-03-03T15:09:43.076Z,20.30
2023-03-03T15:12:24.849Z,20.23
2023-03-03T15:14:53.825Z,21.50
2023-03-03T15:17:26.615Z,21.55
2023-03-03T15:20:40.521Z,20.65
2023-03-03T15:23:38.033Z,21.27
2023-03-03T15:26:12.604Z,21.13
2023-03-03T15:28:48.354Z,20.30
2023-03-03T15:31:36.704Z,20.35
2023-03-03T15:34:37.199Z,20.50
2023-03-03T15:37:40.598Z,21.35
2023-03-03T15:40:27.343Z,22.38
2023-03-03T15:43:10.563Z,21.17
2023-03-03T15:46:04.380Z,22.25
2023-03-03T15:49:03.975Z,21.65
2023-03-03T15:52:02.515Z,22.13
2023-03-03T15:54:43.387Z,21.00
2023-03-03T15:57:41.100Z,22.15
2023-03-03T16:00:36.783Z,22.20
2023-03-03T16:03:12.706Z,21.55
2023-03-03T16:05:57.685Z,20.13
2023-03-03T16:08:49.494Z,19.55
2023-03-03T16:11:21.765Z,21.17
2023-03-03T16:14:42.284Z,22.80
2023-03-03T16:17:17.394Z,21.05
2023-03-03T16:19:55.937Z,20.48
2023-03-03T16:22:45.314Z,21.17
2023-03-03T16:25:36.644Z,20.02
2023-03-03T16:28:10.668Z,20.05
2023-03-03T16:30:41.765Z,20.05
2023-03-03T16:33:32.261Z,21.98
2023-03-03T16:36:17.991Z,22.55
2023-03-03T16:38:56.944Z,26.75
2023-03-03T16:41:39.669Z,27.50
2023-03-03T16:44:38.410Z,23.80
2023-03-03T16:47:29.287Z,27.77
2023-03-03T16:50:01.612Z,25.13
2023-03-03T16:52:41.388Z,23.65
2023-03-03T16:55:31.033Z,23.73
2023-03-03T16:58:10.658Z,23.65
2023-03-03T17:00:56.317Z,22.48
2023-03-03T17:03:28.685Z,22.50
2023-03-03T17:06:00.444Z,21.83
2023-03-03T17:08:41.732Z,18.10
2023-03-03T17:11:37.222Z,21.35
2023-03-03T17:14:21.606Z,21.85
2023-03-03T17:17:04.745Z,21.85
2023-03-03T17:20:10.364Z,22.83
2023-03-03T17:23:03.702Z,22.60
2023-03-03T17:25:45.451Z,23.05
2023-03-03T17:28:37.025Z,22.63
2023-03-03T17:31:12.556Z,24.10
2023-03-03T17:33:51.984Z,23.35
2023-03-03T17:36:27.387Z,24.13
2023-03-03T17:39:02.758Z,22.83
2023-03-03T17:41:41.899Z,23.38
2023-03-03T17:44:20.904Z,25.63
2023-03-03T17:46:54.058Z,24.65
2023-03-03T17:49:41.372Z,25.27
2023-03-03T17:52:26.406Z,25.85
2023-03-03T17:55:11.009Z,26.15
2023-03-03T17:57:52.570Z,25.65
2023-03-03T18:00:48.247Z,27.33
2023-03-03T18:03:35.614Z,27.35
2023-03-03T18:06:18.775Z,30.63
2023-03-03T18:09:02.020Z,31.58
2023-03-03T18:11:59.322Z,32.70
2023-03-03T18:14:35.845Z,33.28
2023-03-03T18:17:31.976Z,41.10
2023-03-03T18:20:04.479Z,36.70
2023-03-03T18:25:09.039Z,36.42
2023-03-03T18:27:45.892Z,35.28
2023-03-03T18:30:18.488Z,34.00
2023-03-03T18:33:03.360Z,34.38
2023-03-03T18:35:32.718Z,32.28
2023-03-03T18:38:24.312Z,33.67
2023-03-03T18:41:08.043Z,32.72
2023-03-03T18:43:48.607Z,32.47
2023-03-03T18:46:22.525Z,33.03
2023-03-03T18:49:00.289Z,31.63
2023-03-03T18:51:38.846Z,33.22
2023-03-03T18:54:16.926Z,31.80
2023-03-03T18:56:47.689Z,31.27
2023-03-03T18:59:52.719Z,31.30
2023-03-03T19:02:33.452Z,30.55
2023-03-03T19:05:36.968Z,30.52
2023-03-03T19:08:16.672Z,28.73
2023-03-03T19:10:54.271Z,29.77
2023-03-03T19:13:32.841Z,29.30
2023-03-03T19:16:04.221Z,28.65
2023-03-03T19:18:34.068Z,27.35
2023-03-03T19:21:36.489Z,26.30
2023-03-03T19:24:25.375Z,26.75
2023-03-03T19:26:54.610Z,22.88
2023-03-03T19:29:34.773Z,23.95
2023-03-03T19:32:21.982Z,24.38
2023-03-03T19:35:19.587Z,23.80
2023-03-03T19:38:04.834Z,25.55
2023-03-03T19:40:36.916Z,25.25
2023-03-03T19:43:28.114Z,22.48
2023-03-03T19:46:21.080Z,20.33
2023-03-03T19:49:13.103Z,18.85
2023-03-03T19:51:53.283Z,23.00
2023-03-03T19:54:52.968Z,21.48
2023-03-03T19:57:37.394Z,22.08
2023-03-03T20:00:26.437Z,20.50
2023-03-03T20:03:23.992Z,18.90
2023-03-03T20:06:02.889Z,19.48
2023-03-03T20:08:44.542Z,17.83
2023-03-03T20:11:35.806Z,17.63
2023-03-03T20:14:24.200Z,16.10
2023-03-03T20:16:53.330Z,16.92
2023-03-03T20:19:47.998Z,16.20
2023-03-03T20:22:29.455Z,15.88
2023-03-03T20:25:16.968Z,15.05
2023-03-03T20:27:54.003Z,13.88
2023-03-03T20:30:36.957Z,12.68
2023-03-03T20:33:06.379Z,13.15
2023-03-03T20:35:51.162Z,14.13
2023-03-03T20:38:26.143Z,15.07
2023-03-03T20:41:27.971Z,14.95
2023-03-03T20:44:16.699Z,14.60
2023-03-03T20:47:05.029Z,14.25
2023-03-03T20:50:10.179Z,12.10
2023-03-03T20:52:58.801Z,7.22
2023-03-03T20:55:38.708Z,7.63
2023-03-03T20:58:07.760Z,7.30
2023-03-03T21:00:58.908Z,7.00
2023-03-03T21:03:37.462Z,6.90
2023-03-03T21:06:09.347Z,5.95
2023-03-03T21:08:49.404Z,6.20
2023-03-03T21:11:18.572Z,6.53
2023-03-03T21:13:47.092Z,7.78
2023-03-03T21:16:29.545Z,8.63
2023-03-03T21:19:03.279Z,7.50
2023-03-03T21:21:38.260Z,4.68
2023-03-03T21:24:05.770Z,4.70
2023-03-03T21:26:49.639Z,4.72
2023-03-03T21:29:21.873Z,5.88
2023-03-03T21:31:50.603Z,4.63
2023-03-03T21:34:25.148Z,3.83
2023-03-03T21:36:51.912Z,4.65
2023-03-03T21:39:36.248Z,3.90
2023-03-03T21:42:07.857Z,4.68
2023-03-03T21:44:46.394Z,4.17
2023-03-03T21:47:17.344Z,4.32
2023-03-03T21:49:45.534Z,3.95
2023-03-03T21:52:14.347Z,5.05
2023-03-03T21:54:40.881Z,4.35
2023-03-03T21:57:07.496Z,4.57
2023-03-03T21:59:33.928Z,4.20
2023-03-03T22:02:00.284Z,4.70
2023-03-03T22:04:26.813Z,4.30
2023-03-03T22:06:53.270Z,4.38
2023-03-03T22:09:20.108Z,4.32
2023-03-03T22:11:46.760Z,4.28
2023-03-03T22:14:13.246Z,4.43
2023-03-03T22:16:39.791Z,4.25
2023-03-03T22:19:09.017Z,4.68
2023-03-03T22:21:36.224Z,4.43
2023-03-03T22:24:02.727Z,4.43
2023-03-03T22:26:29.157Z,4.57
2023-03-03T22:28:55.510Z,3.78
2023-03-03T22:31:21.929Z,4.53
2023-03-03T22:33:48.829Z,4.80
2023-03-03T22:36:15.953Z,3.95
2023-03-03T22:38:42.552Z,4.20
2023-03-03T22:41:09.091Z,4.40
2023-03-03T22:43:35.452Z,4.40
2023-03-03T22:46:01.896Z,4.72
2023-03-03T22:48:29.082Z,4.07
2023-03-03T22:50:55.580Z,4.45
2023-03-03T22:53:22.663Z,4.40
2023-03-03T22:55:49.077Z,4.40
2023-03-03T22:58:16.076Z,5.38
2023-03-03T23:00:42.550Z,4.70
2023-03-03T23:03:10.217Z,4.57
2023-03-03T23:05:37.313Z,5.78
2023-03-03T23:08:05.614Z,4.93
2023-03-03T23:10:32.037Z,4.45
2023-03-03T23:12:58.445Z,4.60
2023-03-03T23:15:25.024Z,4.43
2023-03-03T23:17:51.564Z,4.28
2023-03-03T23:20:23.943Z,4.47
2023-03-03T23:22:50.719Z,4.85
2023-03-03T23:25:17.772Z,3.72
2023-03-03T23:27:44.594Z,4.45
2023-03-03T23:30:13.177Z,4.13
2023-03-03T23:32:39.662Z,4.30
2023-03-03T23:35:06.504Z,3.78
2023-03-03T23:37:33.012Z,4.38
2023-03-03T23:40:00.050Z,4.47
2023-03-03T23:42:27.782Z,3.92
2023-03-03T23:44:54.251Z,4.00
2023-03-03T23:47:20.732Z,4.25
2023-03-03T23:49:47.083Z,3.92
2023-03-03T23:52:13.483Z,4.38
2023-03-03T23:54:39.889Z,4.45
2023-03-03T23:57:07.951Z,4.10
2023-03-03T23:59:35.212Z,4.55
